Date,TemperatureHighF,TemperatureAvgF,TemperatureLowF,DewpointHighF,DewpointAvgF,DewpointLowF,HumidityHigh,HumidityAvg,HumidityLow,PressureMaxIn,PressureMinIn,WindSpeedMaxMPH,WindSpeedAvgMPH,GustSpeedMaxMPH,PrecipitationSumIn
2013-1-1,39,31,27,35,30,26,98,94,82,30.47,30.32,2,0,5,0.01
2013-1-2,41,32,28,37,29,27,97,92,70,30.32,30.16,1,0,3,0.00
2013-1-3,42,32,26,35,29,25,97,88,58,30.17,30.06,3,0,0,0.00
2013-1-4,47,41,36,45,40,35,99,97,92,30.29,30.14,2,0,3,0.00
2013-1-5,44,40,38,41,38,36,98,93,82,30.18,30.09,4,0,6,0.08
2013-1-6,44,40,37,41,39,36,97,95,87,30.16,29.96,3,1,9,0.20
2013-1-7,49,45,39,47,43,38,98,93,86,30.14,29.79,5,2,12,0.27
2013-1-8,52,46,40,49,44,39,99,93,85,30.14,29.72,6,1,20,0.36
2013-1-9,48,40,35,47,38,34,99,97,95,29.93,29.65,4,1,11,0.27
2013-1-10,37,34,29,36,33,28,98,97,95,30.09,29.92,1,0,4,0.00
2013-1-11,32,28,25,30,27,24,98,95,91,30.31,30.09,0,0,0,0.01
2013-1-12,33,27,24,31,25,23,97,92,74,30.42,30.29,2,0,0,0.00
2013-1-13,33,27,22,30,25,21,97,91,75,30.47,30.41,3,0,0,0.00
2013-1-14,36,33,30,31,29,27,94,87,74,30.54,30.44,1,0,4,0.00
2013-1-15,41,34,30,36,31,28,96,91,76,30.67,30.54,4,0,2,0.00
2013-1-16,39,31,27,35,29,26,97,94,84,30.66,30.49,3,0,0,0.00
2013-1-17,35,31,27,35,30,26,99,97,95,30.51,30.27,1,0,0,0.00
2013-1-18,35,31,28,35,30,-59,99,97,1,30.33,30.24,2,0,4,0.01
2013-1-19,32,30,28,32,29,27,99,97,96,30.37,30.31,2,0,4,0.00
2013-1-20,37,31,28,36,30,27,98,96,92,30.37,30.23,2,0,7,0.00
2013-1-21,33,31,29,33,31,28,99,98,97,30.26,30.12,2,0,5,0.00
2013-1-22,37,32,28,37,31,27,99,98,97,30.13,29.88,2,0,3,0.00
2013-1-23,41,38,34,41,36,34,100,96,90,30.11,29.82,4,1,7,0.09
2013-1-24,45,40,36,41,39,35,99,95,77,30.19,30.03,3,0,9,0.09
2013-1-25,48,43,39,47,42,38,100,98,94,30.05,29.91,3,0,0,0.00
2013-1-26,43,40,38,41,39,37,99,95,89,30.02,29.86,8,1,0,0.00
2013-1-27,41,39,38,39,38,37,98,95,90,30.04,29.97,5,1,0,0.00
2013-1-28,41,39,37,41,38,36,100,98,97,30.07,29.98,3,0,0,0.00
2013-1-29,45,43,40,45,43,40,100,99,99,30.32,30.07,4,0,7,0.40
2013-1-30,47,45,43,47,45,43,100,99,98,30.36,30.31,3,1,8,0.08
2013-1-31,47,46,45,47,45,44,100,98,93,30.37,30.28,3,1,10,0.17